sensor_id;sensor_type;location;lat;lon;timestamp;P1;durP1;ratioP1;P2;durP2;ratioP2
29218;SDS011;16421;50.202;7.852;2023-06-04T00:01:41;1.65;;;0.82;;
29218;SDS011;16421;50.202;7.852;2023-06-04T00:06:46;1.27;;;0.80;;
29218;SDS011;16421;50.202;7.852;2023-06-04T00:11:51;2.75;;;0.90;;
29218;SDS011;16421;50.202;7.852;2023-06-04T00:16:54;2.00;;;0.60;;
29218;SDS011;16421;50.202;7.852;2023-06-04T00:21:58;1.15;;;0.80;;
29218;SDS011;16421;50.202;7.852;2023-06-04T00:27:03;1.45;;;0.73;;
29218;SDS011;16421;50.202;7.852;2023-06-04T00:32:08;1.15;;;0.80;;
29218;SDS011;16421;50.202;7.852;2023-06-04T00:37:11;0.90;;;0.68;;
29218;SDS011;16421;50.202;7.852;2023-06-04T00:42:16;1.15;;;0.73;;
29218;SDS011;16421;50.202;7.852;2023-06-04T00:47:20;1.25;;;0.95;;
29218;SDS011;16421;50.202;7.852;2023-06-04T00:52:24;1.70;;;0.80;;
29218;SDS011;16421;50.202;7.852;2023-06-04T00:57:29;0.93;;;0.80;;
29218;SDS011;16421;50.202;7.852;2023-06-04T01:02:33;1.83;;;0.80;;
29218;SDS011;16421;50.202;7.852;2023-06-04T01:07:42;1.20;;;0.80;;
29218;SDS011;16421;50.202;7.852;2023-06-04T01:12:49;1.27;;;0.73;;
29218;SDS011;16421;50.202;7.852;2023-06-04T01:17:54;0.77;;;0.68;;
29218;SDS011;16421;50.202;7.852;2023-06-04T01:23:14;1.23;;;0.75;;
29218;SDS011;16421;50.202;7.852;2023-06-04T01:28:26;2.75;;;0.77;;
29218;SDS011;16421;50.202;7.852;2023-06-04T01:33:31;0.88;;;0.60;;
29218;SDS011;16421;50.202;7.852;2023-06-04T01:38:35;1.52;;;0.82;;
29218;SDS011;16421;50.202;7.852;2023-06-04T01:43:40;1.00;;;0.90;;
29218;SDS011;16421;50.202;7.852;2023-06-04T01:48:51;2.05;;;0.95;;
29218;SDS011;16421;50.202;7.852;2023-06-04T01:53:55;0.90;;;0.80;;
29218;SDS011;16421;50.202;7.852;2023-06-04T01:59:00;1.10;;;0.85;;
29218;SDS011;16421;50.202;7.852;2023-06-04T02:04:04;1.35;;;0.82;;
29218;SDS011;16421;50.202;7.852;2023-06-04T02:09:08;1.30;;;0.70;;
29218;SDS011;16421;50.202;7.852;2023-06-04T02:14:13;2.00;;;0.80;;
29218;SDS011;16421;50.202;7.852;2023-06-04T02:19:17;1.00;;;0.90;;
29218;SDS011;16421;50.202;7.852;2023-06-04T02:24:21;5.03;;;1.00;;
29218;SDS011;16421;50.202;7.852;2023-06-04T02:29:28;1.52;;;0.98;;
29218;SDS011;16421;50.202;7.852;2023-06-04T02:34:31;3.03;;;0.73;;
29218;SDS011;16421;50.202;7.852;2023-06-04T02:39:35;1.02;;;0.80;;
29218;SDS011;16421;50.202;7.852;2023-06-04T02:44:40;1.10;;;0.90;;
29218;SDS011;16421;50.202;7.852;2023-06-04T02:49:43;0.80;;;0.68;;
29218;SDS011;16421;50.202;7.852;2023-06-04T02:54:46;1.05;;;0.95;;
29218;SDS011;16421;50.202;7.852;2023-06-04T02:59:51;1.33;;;0.95;;
29218;SDS011;16421;50.202;7.852;2023-06-04T03:04:56;1.38;;;0.82;;
29218;SDS011;16421;50.202;7.852;2023-06-04T03:10:00;1.20;;;0.80;;
29218;SDS011;16421;50.202;7.852;2023-06-04T03:15:08;1.33;;;0.90;;
29218;SDS011;16421;50.202;7.852;2023-06-04T03:20:12;1.58;;;0.90;;
29218;SDS011;16421;50.202;7.852;2023-06-04T03:25:15;0.90;;;0.75;;
29218;SDS011;16421;50.202;7.852;2023-06-04T03:30:20;1.10;;;0.70;;
29218;SDS011;16421;50.202;7.852;2023-06-04T03:35:34;0.95;;;0.88;;
29218;SDS011;16421;50.202;7.852;2023-06-04T03:40:38;2.53;;;1.00;;
29218;SDS011;16421;50.202;7.852;2023-06-04T03:45:44;3.08;;;0.80;;
29218;SDS011;16421;50.202;7.852;2023-06-04T03:50:49;1.42;;;0.80;;
29218;SDS011;16421;50.202;7.852;2023-06-04T03:55:54;0.93;;;0.57;;
29218;SDS011;16421;50.202;7.852;2023-06-04T04:00:58;1.50;;;0.70;;
29218;SDS011;16421;50.202;7.852;2023-06-04T04:06:03;1.70;;;0.70;;
29218;SDS011;16421;50.202;7.852;2023-06-04T04:11:06;1.38;;;0.90;;
29218;SDS011;16421;50.202;7.852;2023-06-04T04:16:11;0.93;;;0.70;;
29218;SDS011;16421;50.202;7.852;2023-06-04T04:21:14;0.77;;;0.77;;
29218;SDS011;16421;50.202;7.852;2023-06-04T04:26:19;1.73;;;1.23;;
29218;SDS011;16421;50.202;7.852;2023-06-04T04:31:29;1.38;;;0.70;;
29218;SDS011;16421;50.202;7.852;2023-06-04T04:36:34;1.17;;;0.80;;
29218;SDS011;16421;50.202;7.852;2023-06-04T04:41:38;1.40;;;0.63;;
29218;SDS011;16421;50.202;7.852;2023-06-04T04:46:43;2.13;;;0.85;;
29218;SDS011;16421;50.202;7.852;2023-06-04T04:51:49;0.70;;;0.70;;
29218;SDS011;16421;50.202;7.852;2023-06-04T04:56:53;1.23;;;0.88;;
29218;SDS011;16421;50.202;7.852;2023-06-04T05:02:07;1.67;;;0.77;;
29218;SDS011;16421;50.202;7.852;2023-06-04T05:07:10;0.73;;;0.50;;
29218;SDS011;16421;50.202;7.852;2023-06-04T05:12:14;1.00;;;0.73;;
29218;SDS011;16421;50.202;7.852;2023-06-04T05:17:23;0.85;;;0.63;;
29218;SDS011;16421;50.202;7.852;2023-06-04T05:22:35;1.75;;;0.75;;
29218;SDS011;16421;50.202;7.852;2023-06-04T05:27:40;1.40;;;0.70;;
29218;SDS011;16421;50.202;7.852;2023-06-04T05:32:46;0.88;;;0.80;;
29218;SDS011;16421;50.202;7.852;2023-06-04T05:37:54;0.90;;;0.77;;
29218;SDS011;16421;50.202;7.852;2023-06-04T05:43:02;1.60;;;0.68;;
29218;SDS011;16421;50.202;7.852;2023-06-04T05:48:07;1.45;;;0.60;;
29218;SDS011;16421;50.202;7.852;2023-06-04T05:53:10;0.57;;;0.50;;
29218;SDS011;16421;50.202;7.852;2023-06-04T05:58:14;1.85;;;0.60;;
29218;SDS011;16421;50.202;7.852;2023-06-04T06:03:21;1.67;;;0.70;;
29218;SDS011;16421;50.202;7.852;2023-06-04T06:08:25;0.80;;;0.68;;
29218;SDS011;16421;50.202;7.852;2023-06-04T06:13:29;1.15;;;0.88;;
29218;SDS011;16421;50.202;7.852;2023-06-04T06:18:34;1.20;;;0.80;;
29218;SDS011;16421;50.202;7.852;2023-06-04T06:23:37;1.42;;;0.90;;
29218;SDS011;16421;50.202;7.852;2023-06-04T06:28:41;0.90;;;0.68;;
29218;SDS011;16421;50.202;7.852;2023-06-04T06:33:47;1.15;;;0.70;;
29218;SDS011;16421;50.202;7.852;2023-06-04T06:38:51;1.75;;;0.60;;
29218;SDS011;16421;50.202;7.852;2023-06-04T06:43:55;0.85;;;0.43;;
29218;SDS011;16421;50.202;7.852;2023-06-04T06:48:59;1.08;;;0.50;;
29218;SDS011;16421;50.202;7.852;2023-06-04T06:54:03;0.93;;;0.70;;
29218;SDS011;16421;50.202;7.852;2023-06-04T06:59:06;0.40;;;0.40;;
29218;SDS011;16421;50.202;7.852;2023-06-04T07:04:11;0.50;;;0.50;;
29218;SDS011;16421;50.202;7.852;2023-06-04T07:09:14;0.77;;;0.52;;
29218;SDS011;16421;50.202;7.852;2023-06-04T07:14:18;1.45;;;0.57;;
29218;SDS011;16421;50.202;7.852;2023-06-04T07:19:23;2.13;;;0.90;;
29218;SDS011;16421;50.202;7.852;2023-06-04T07:24:27;0.85;;;0.63;;
29218;SDS011;16421;50.202;7.852;2023-06-04T07:29:30;0.82;;;0.55;;
29218;SDS011;16421;50.202;7.852;2023-06-04T07:34:36;0.98;;;0.68;;
29218;SDS011;16421;50.202;7.852;2023-06-04T07:39:40;0.50;;;0.50;;
29218;SDS011;16421;50.202;7.852;2023-06-04T07:44:44;1.20;;;0.60;;
29218;SDS011;16421;50.202;7.852;2023-06-04T07:49:48;0.82;;;0.52;;
29218;SDS011;16421;50.202;7.852;2023-06-04T07:54:58;1.20;;;0.50;;
29218;SDS011;16421;50.202;7.852;2023-06-04T08:00:03;1.23;;;0.60;;
29218;SDS011;16421;50.202;7.852;2023-06-04T08:05:14;0.88;;;0.73;;
29218;SDS011;16421;50.202;7.852;2023-06-04T08:10:18;0.70;;;0.50;;
29218;SDS011;16421;50.202;7.852;2023-06-04T08:15:21;0.63;;;0.63;;
29218;SDS011;16421;50.202;7.852;2023-06-04T08:20:26;1.27;;;0.60;;
29218;SDS011;16421;50.202;7.852;2023-06-04T08:25:29;0.95;;;0.70;;
29218;SDS011;16421;50.202;7.852;2023-06-04T09:10:02;0.88;;;0.50;;
29218;SDS011;16421;50.202;7.852;2023-06-04T09:15:12;1.00;;;0.50;;
29218;SDS011;16421;50.202;7.852;2023-06-04T09:20:19;2.80;;;0.80;;
29218;SDS011;16421;50.202;7.852;2023-06-04T09:25:25;0.60;;;0.60;;
29218;SDS011;16421;50.202;7.852;2023-06-04T09:35:33;0.47;;;0.38;;
29218;SDS011;16421;50.202;7.852;2023-06-04T09:40:38;0.40;;;0.40;;
29218;SDS011;16421;50.202;7.852;2023-06-04T09:50:46;1.45;;;0.40;;
29218;SDS011;16421;50.202;7.852;2023-06-04T09:55:57;0.77;;;0.60;;
29218;SDS011;16421;50.202;7.852;2023-06-04T10:01:01;0.73;;;0.60;;
29218;SDS011;16421;50.202;7.852;2023-06-04T10:06:05;1.77;;;0.65;;
29218;SDS011;16421;50.202;7.852;2023-06-04T10:11:11;0.90;;;0.60;;
29218;SDS011;16421;50.202;7.852;2023-06-04T10:16:16;0.47;;;0.40;;
29218;SDS011;16421;50.202;7.852;2023-06-04T10:21:25;0.77;;;0.55;;
29218;SDS011;16421;50.202;7.852;2023-06-04T10:26:34;0.85;;;0.50;;
29218;SDS011;16421;50.202;7.852;2023-06-04T10:31:39;0.98;;;0.60;;
29218;SDS011;16421;50.202;7.852;2023-06-04T10:36:43;0.55;;;0.50;;
29218;SDS011;16421;50.202;7.852;2023-06-04T10:41:57;4.53;;;0.80;;
29218;SDS011;16421;50.202;7.852;2023-06-04T10:47:01;0.93;;;0.50;;
29218;SDS011;16421;50.202;7.852;2023-06-04T10:52:09;2.35;;;0.50;;
29218;SDS011;16421;50.202;7.852;2023-06-04T10:57:15;1.08;;;0.60;;
29218;SDS011;16421;50.202;7.852;2023-06-04T11:02:19;1.83;;;0.60;;
29218;SDS011;16421;50.202;7.852;2023-06-04T11:07:23;1.20;;;0.68;;
29218;SDS011;16421;50.202;7.852;2023-06-04T11:12:28;1.95;;;0.70;;
29218;SDS011;16421;50.202;7.852;2023-06-04T11:17:31;0.55;;;0.50;;
29218;SDS011;16421;50.202;7.852;2023-06-04T11:22:34;0.88;;;0.60;;
29218;SDS011;16421;50.202;7.852;2023-06-04T11:27:39;0.80;;;0.70;;
29218;SDS011;16421;50.202;7.852;2023-06-04T11:32:43;1.08;;;0.60;;
29218;SDS011;16421;50.202;7.852;2023-06-04T11:37:52;2.38;;;0.60;;
29218;SDS011;16421;50.202;7.852;2023-06-04T11:42:58;1.00;;;0.60;;
29218;SDS011;16421;50.202;7.852;2023-06-04T11:48:01;1.30;;;0.60;;
29218;SDS011;16421;50.202;7.852;2023-06-04T11:53:07;1.42;;;0.50;;
29218;SDS011;16421;50.202;7.852;2023-06-04T11:58:13;0.68;;;0.68;;
29218;SDS011;16421;50.202;7.852;2023-06-04T12:03:17;3.60;;;0.65;;
29218;SDS011;16421;50.202;7.852;2023-06-04T12:08:20;0.82;;;0.68;;
29218;SDS011;16421;50.202;7.852;2023-06-04T12:13:25;1.52;;;0.65;;
29218;SDS011;16421;50.202;7.852;2023-06-04T12:18:28;0.82;;;0.52;;
29218;SDS011;16421;50.202;7.852;2023-06-04T12:23:32;0.57;;;0.50;;
29218;SDS011;16421;50.202;7.852;2023-06-04T12:28:36;0.77;;;0.50;;
29218;SDS011;16421;50.202;7.852;2023-06-04T12:33:40;0.75;;;0.47;;
29218;SDS011;16421;50.202;7.852;2023-06-04T12:38:44;1.35;;;0.60;;
29218;SDS011;16421;50.202;7.852;2023-06-04T12:43:49;0.70;;;0.50;;
29218;SDS011;16421;50.202;7.852;2023-06-04T12:48:53;1.30;;;0.80;;
29218;SDS011;16421;50.202;7.852;2023-06-04T12:53:57;0.98;;;0.57;;
29218;SDS011;16421;50.202;7.852;2023-06-04T12:59:02;0.43;;;0.38;;
29218;SDS011;16421;50.202;7.852;2023-06-04T13:09:09;1.17;;;0.50;;
29218;SDS011;16421;50.202;7.852;2023-06-04T13:14:14;0.88;;;0.60;;
29218;SDS011;16421;50.202;7.852;2023-06-04T13:24:21;0.50;;;0.50;;
29218;SDS011;16421;50.202;7.852;2023-06-04T13:29:26;0.57;;;0.38;;
29218;SDS011;16421;50.202;7.852;2023-06-04T13:34:34;0.70;;;0.40;;
29218;SDS011;16421;50.202;7.852;2023-06-04T13:39:38;0.60;;;0.47;;
29218;SDS011;16421;50.202;7.852;2023-06-04T13:44:43;0.60;;;0.50;;
29218;SDS011;16421;50.202;7.852;2023-06-04T13:49:46;0.90;;;0.63;;
29218;SDS011;16421;50.202;7.852;2023-06-04T13:54:49;1.33;;;0.63;;
29218;SDS011;16421;50.202;7.852;2023-06-04T13:59:55;1.85;;;0.65;;
29218;SDS011;16421;50.202;7.852;2023-06-04T14:04:58;2.42;;;0.70;;
29218;SDS011;16421;50.202;7.852;2023-06-04T14:10:02;1.50;;;0.80;;
29218;SDS011;16421;50.202;7.852;2023-06-04T14:15:07;0.60;;;0.60;;
29218;SDS011;16421;50.202;7.852;2023-06-04T14:20:12;0.80;;;0.65;;
29218;SDS011;16421;50.202;7.852;2023-06-04T14:25:15;2.05;;;0.70;;
29218;SDS011;16421;50.202;7.852;2023-06-04T14:35:58;2.10;;;0.63;;
29218;SDS011;16421;50.202;7.852;2023-06-04T14:41:01;1.05;;;0.75;;
29218;SDS011;16421;50.202;7.852;2023-06-04T14:46:05;1.10;;;0.80;;
29218;SDS011;16421;50.202;7.852;2023-06-04T14:51:10;1.70;;;0.80;;
29218;SDS011;16421;50.202;7.852;2023-06-04T14:56:13;0.70;;;0.55;;
29218;SDS011;16421;50.202;7.852;2023-06-04T15:01:19;1.08;;;0.75;;
29218;SDS011;16421;50.202;7.852;2023-06-04T15:06:25;0.60;;;0.50;;
29218;SDS011;16421;50.202;7.852;2023-06-04T15:11:28;1.08;;;0.57;;
29218;SDS011;16421;50.202;7.852;2023-06-04T15:16:32;2.05;;;1.00;;
29218;SDS011;16421;50.202;7.852;2023-06-04T15:21:37;0.93;;;0.80;;
29218;SDS011;16421;50.202;7.852;2023-06-04T15:26:45;0.93;;;0.90;;
29218;SDS011;16421;50.202;7.852;2023-06-04T15:31:49;1.20;;;0.90;;
29218;SDS011;16421;50.202;7.852;2023-06-04T15:36:53;2.00;;;1.02;;
29218;SDS011;16421;50.202;7.852;2023-06-04T15:41:57;1.13;;;0.80;;
29218;SDS011;16421;50.202;7.852;2023-06-04T15:47:00;1.92;;;1.10;;
29218;SDS011;16421;50.202;7.852;2023-06-04T15:52:05;1.13;;;1.02;;
29218;SDS011;16421;50.202;7.852;2023-06-04T15:57:09;0.80;;;0.70;;
29218;SDS011;16421;50.202;7.852;2023-06-04T16:02:12;1.25;;;1.00;;
29218;SDS011;16421;50.202;7.852;2023-06-04T16:07:17;4.70;;;1.00;;
29218;SDS011;16421;50.202;7.852;2023-06-04T16:12:21;2.83;;;1.45;;
29218;SDS011;16421;50.202;7.852;2023-06-04T16:17:25;1.33;;;1.20;;
29218;SDS011;16421;50.202;7.852;2023-06-04T16:22:30;1.58;;;1.40;;
29218;SDS011;16421;50.202;7.852;2023-06-04T16:27:33;1.30;;;1.20;;
29218;SDS011;16421;50.202;7.852;2023-06-04T16:32:36;1.60;;;1.20;;
29218;SDS011;16421;50.202;7.852;2023-06-04T16:37:42;1.70;;;1.50;;
29218;SDS011;16421;50.202;7.852;2023-06-04T16:42:46;2.13;;;1.30;;
29218;SDS011;16421;50.202;7.852;2023-06-04T16:47:49;1.63;;;1.23;;
29218;SDS011;16421;50.202;7.852;2023-06-04T16:52:54;2.13;;;1.48;;
29218;SDS011;16421;50.202;7.852;2023-06-04T16:57:57;1.20;;;1.10;;
29218;SDS011;16421;50.202;7.852;2023-06-04T17:03:01;1.38;;;1.10;;
29218;SDS011;16421;50.202;7.852;2023-06-04T17:08:06;1.80;;;1.00;;
29218;SDS011;16421;50.202;7.852;2023-06-04T17:13:10;1.63;;;1.07;;
29218;SDS011;16421;50.202;7.852;2023-06-04T17:18:13;1.20;;;1.10;;
29218;SDS011;16421;50.202;7.852;2023-06-04T17:23:22;1.35;;;1.25;;
29218;SDS011;16421;50.202;7.852;2023-06-04T17:28:27;1.10;;;1.00;;
29218;SDS011;16421;50.202;7.852;2023-06-04T17:33:30;3.33;;;1.17;;
29218;SDS011;16421;50.202;7.852;2023-06-04T17:38:36;1.90;;;1.20;;
29218;SDS011;16421;50.202;7.852;2023-06-04T17:43:40;1.37;;;1.10;;
29218;SDS011;16421;50.202;7.852;2023-06-04T17:48:45;2.25;;;1.27;;
29218;SDS011;16421;50.202;7.852;2023-06-04T17:53:50;1.98;;;1.40;;
29218;SDS011;16421;50.202;7.852;2023-06-04T17:58:53;1.10;;;0.90;;
29218;SDS011;16421;50.202;7.852;2023-06-04T18:03:56;1.98;;;1.52;;
29218;SDS011;16421;50.202;7.852;2023-06-04T18:09:01;1.77;;;1.13;;
29218;SDS011;16421;50.202;7.852;2023-06-04T18:14:05;3.15;;;1.00;;
29218;SDS011;16421;50.202;7.852;2023-06-04T18:19:09;1.30;;;1.00;;
29218;SDS011;16421;50.202;7.852;2023-06-04T18:24:15;2.10;;;1.00;;
29218;SDS011;16421;50.202;7.852;2023-06-04T18:29:19;1.43;;;0.97;;
29218;SDS011;16421;50.202;7.852;2023-06-04T18:34:22;1.10;;;0.93;;
29218;SDS011;16421;50.202;7.852;2023-06-04T18:39:28;1.25;;;1.00;;
29218;SDS011;16421;50.202;7.852;2023-06-04T18:44:32;1.33;;;0.85;;
29218;SDS011;16421;50.202;7.852;2023-06-04T18:49:35;1.10;;;0.95;;
29218;SDS011;16421;50.202;7.852;2023-06-04T18:54:40;1.73;;;1.10;;
29218;SDS011;16421;50.202;7.852;2023-06-04T18:59:45;1.15;;;0.95;;
29218;SDS011;16421;50.202;7.852;2023-06-04T19:04:49;0.95;;;0.90;;
29218;SDS011;16421;50.202;7.852;2023-06-04T19:09:54;1.00;;;0.80;;
29218;SDS011;16421;50.202;7.852;2023-06-04T19:14:58;2.75;;;1.05;;
29218;SDS011;16421;50.202;7.852;2023-06-04T19:20:01;2.67;;;0.90;;
29218;SDS011;16421;50.202;7.852;2023-06-04T19:25:09;1.52;;;0.75;;
29218;SDS011;16421;50.202;7.852;2023-06-04T19:30:13;1.17;;;0.90;;
29218;SDS011;16421;50.202;7.852;2023-06-04T19:35:18;0.93;;;0.80;;
29218;SDS011;16421;50.202;7.852;2023-06-04T19:40:23;1.17;;;0.90;;
29218;SDS011;16421;50.202;7.852;2023-06-04T19:45:27;0.90;;;0.70;;
29218;SDS011;16421;50.202;7.852;2023-06-04T19:50:30;1.00;;;0.70;;
29218;SDS011;16421;50.202;7.852;2023-06-04T19:55:37;0.90;;;0.75;;
29218;SDS011;16421;50.202;7.852;2023-06-04T20:00:41;0.80;;;0.60;;
29218;SDS011;16421;50.202;7.852;2023-06-04T20:05:46;0.80;;;0.80;;
29218;SDS011;16421;50.202;7.852;2023-06-04T20:10:51;1.73;;;1.33;;
29218;SDS011;16421;50.202;7.852;2023-06-04T20:15:54;2.30;;;1.20;;
29218;SDS011;16421;50.202;7.852;2023-06-04T20:20:58;2.92;;;1.10;;
29218;SDS011;16421;50.202;7.852;2023-06-04T20:26:03;2.92;;;1.15;;
29218;SDS011;16421;50.202;7.852;2023-06-04T20:36:38;1.10;;;0.93;;
29218;SDS011;16421;50.202;7.852;2023-06-04T20:41:43;2.05;;;1.30;;
29218;SDS011;16421;50.202;7.852;2023-06-04T20:46:47;1.00;;;0.90;;
29218;SDS011;16421;50.202;7.852;2023-06-04T20:51:51;1.00;;;0.80;;
29218;SDS011;16421;50.202;7.852;2023-06-04T20:56:56;2.10;;;1.15;;
29218;SDS011;16421;50.202;7.852;2023-06-04T21:02:01;1.25;;;1.05;;
29218;SDS011;16421;50.202;7.852;2023-06-04T21:07:05;1.07;;;0.93;;
29218;SDS011;16421;50.202;7.852;2023-06-04T21:12:14;1.33;;;1.08;;
29218;SDS011;16421;50.202;7.852;2023-06-04T21:17:17;2.50;;;1.20;;
29218;SDS011;16421;50.202;7.852;2023-06-04T21:22:21;2.75;;;1.13;;
29218;SDS011;16421;50.202;7.852;2023-06-04T21:27:26;1.23;;;1.05;;
29218;SDS011;16421;50.202;7.852;2023-06-04T21:32:29;2.88;;;0.98;;
29218;SDS011;16421;50.202;7.852;2023-06-04T21:37:35;1.48;;;1.00;;
29218;SDS011;16421;50.202;7.852;2023-06-04T21:42:40;1.05;;;0.93;;
29218;SDS011;16421;50.202;7.852;2023-06-04T21:47:43;1.48;;;1.10;;
29218;SDS011;16421;50.202;7.852;2023-06-04T21:52:47;2.13;;;0.88;;
29218;SDS011;16421;50.202;7.852;2023-06-04T21:57:52;1.20;;;1.10;;
29218;SDS011;16421;50.202;7.852;2023-06-04T22:02:55;3.63;;;1.15;;
29218;SDS011;16421;50.202;7.852;2023-06-04T22:07:59;2.35;;;1.00;;
29218;SDS011;16421;50.202;7.852;2023-06-04T22:13:04;1.15;;;0.77;;
29218;SDS011;16421;50.202;7.852;2023-06-04T22:18:08;2.88;;;1.13;;
29218;SDS011;16421;50.202;7.852;2023-06-04T22:23:11;0.95;;;0.85;;
29218;SDS011;16421;50.202;7.852;2023-06-04T22:28:16;2.97;;;1.20;;
29218;SDS011;16421;50.202;7.852;2023-06-04T22:33:19;1.08;;;0.82;;
29218;SDS011;16421;50.202;7.852;2023-06-04T22:38:23;1.48;;;1.10;;
29218;SDS011;16421;50.202;7.852;2023-06-04T22:43:28;1.30;;;0.90;;
29218;SDS011;16421;50.202;7.852;2023-06-04T22:48:31;1.98;;;1.23;;
29218;SDS011;16421;50.202;7.852;2023-06-04T22:53:35;1.60;;;1.20;;
29218;SDS011;16421;50.202;7.852;2023-06-04T22:58:40;1.10;;;1.00;;
29218;SDS011;16421;50.202;7.852;2023-06-04T23:03:43;2.03;;;1.15;;
29218;SDS011;16421;50.202;7.852;2023-06-04T23:08:47;2.28;;;1.52;;
29218;SDS011;16421;50.202;7.852;2023-06-04T23:13:52;1.45;;;0.95;;
29218;SDS011;16421;50.202;7.852;2023-06-04T23:18:56;2.10;;;1.10;;
29218;SDS011;16421;50.202;7.852;2023-06-04T23:23:59;1.40;;;1.00;;
29218;SDS011;16421;50.202;7.852;2023-06-04T23:29:04;1.20;;;0.90;;
29218;SDS011;16421;50.202;7.852;2023-06-04T23:34:08;1.65;;;1.02;;
29218;SDS011;16421;50.202;7.852;2023-06-04T23:39:11;1.20;;;1.10;;
29218;SDS011;16421;50.202;7.852;2023-06-04T23:44:16;1.35;;;1.10;;
29218;SDS011;16421;50.202;7.852;2023-06-04T23:49:20;1.95;;;1.00;;
29218;SDS011;16421;50.202;7.852;2023-06-04T23:54:23;2.05;;;1.08;;
29218;SDS011;16421;50.202;7.852;2023-06-04T23:59:28;1.30;;;1.10;;
